createdAt,value
2018-07-11T00:00:30.008Z,93429.33
2018-07-11T00:02:58.141Z,93431.80
2018-07-11T00:05:26.177Z,93423.64
2018-07-11T00:07:54.178Z,93427.89
2018-07-11T00:10:22.184Z,93436.68
2018-07-11T00:12:50.135Z,93428.72
2018-07-11T00:15:18.074Z,93431.89
2018-07-11T00:17:46.168Z,93427.87
2018-07-11T00:20:14.074Z,93427.28
2018-07-11T00:22:42.093Z,93421.01
2018-07-11T00:25:10.136Z,93426.65
2018-07-11T00:27:38.188Z,93415.05
2018-07-11T00:30:06.150Z,93420.61
2018-07-11T00:32:34.226Z,93415.87
2018-07-11T00:35:02.293Z,93414.46
2018-07-11T00:37:30.447Z,93415.50
2018-07-11T00:39:58.416Z,93420.95
2018-07-11T00:42:26.385Z,93425.08
2018-07-11T00:44:54.669Z,93418.80
2018-07-11T00:47:22.634Z,93419.17
2018-07-11T00:49:50.604Z,93418.56
2018-07-11T00:52:19.060Z,93421.65
2018-07-11T00:54:47.169Z,93418.22
2018-07-11T00:57:16.727Z,93418.32
2018-07-11T00:59:44.748Z,93418.32
2018-07-11T01:02:13.089Z,93412.73
2018-07-11T01:04:41.144Z,93414.65
2018-07-11T01:07:09.447Z,93417.02
2018-07-11T01:09:49.159Z,93415.27
2018-07-11T01:12:19.102Z,93410.84
2018-07-11T01:14:47.681Z,93411.78
2018-07-11T01:17:21.256Z,93402.83
2018-07-11T01:19:49.439Z,93407.09
2018-07-11T01:22:17.492Z,93407.70
2018-07-11T01:24:45.696Z,93408.87
2018-07-11T01:27:13.835Z,93410.52
2018-07-11T01:29:41.939Z,93413.16
2018-07-11T01:32:10.089Z,93412.30
2018-07-11T01:34:38.128Z,93420.95
2018-07-11T01:37:06.243Z,93413.20
2018-07-11T01:39:34.476Z,93414.98
2018-07-11T01:42:02.543Z,93417.21
2018-07-11T01:44:30.564Z,93418.86
2018-07-11T01:46:58.679Z,93416.25
2018-07-11T01:49:26.733Z,93420.16
2018-07-11T01:52:05.760Z,93416.83
2018-07-11T01:54:34.268Z,93418.92
2018-07-11T01:57:02.517Z,93423.21
2018-07-11T01:59:32.504Z,93420.91
2018-07-11T02:02:00.737Z,93422.91
2018-07-11T02:04:28.963Z,93426.50
2018-07-11T02:06:57.358Z,93418.20
2018-07-11T02:09:25.523Z,93420.23
2018-07-11T02:11:53.753Z,93422.16
2018-07-11T02:14:21.989Z,93419.44
2018-07-11T02:16:50.189Z,93422.39
2018-07-11T02:19:20.227Z,93414.02
2018-07-11T02:21:49.222Z,93413.17
2018-07-11T02:24:17.485Z,93413.92
2018-07-11T02:26:45.645Z,93417.18
2018-07-11T02:29:13.915Z,93424.07
2018-07-11T02:31:42.482Z,93422.70
2018-07-11T02:34:10.960Z,93425.58
2018-07-11T02:36:38.967Z,93424.75
2018-07-11T02:39:07.228Z,93424.41
2018-07-11T02:41:35.302Z,93426.09
2018-07-11T02:44:03.380Z,93426.30
2018-07-11T02:46:36.960Z,93426.09
2018-07-11T02:49:06.137Z,93429.44
2018-07-11T02:51:34.253Z,93423.61
2018-07-11T02:54:02.328Z,93429.41
2018-07-11T02:56:30.428Z,93429.17
2018-07-11T02:58:58.486Z,93432.54
2018-07-11T03:01:26.783Z,93437.00
2018-07-11T03:03:55.005Z,93435.35
2018-07-11T03:06:23.051Z,93434.56
2018-07-11T03:08:51.123Z,93439.57
2018-07-11T03:11:19.196Z,93436.41
2018-07-11T03:13:47.236Z,93439.47
2018-07-11T03:16:15.400Z,93441.14
2018-07-11T03:18:43.358Z,93448.97
2018-07-11T03:21:11.444Z,93445.64
2018-07-11T03:23:39.599Z,93445.40
2018-07-11T03:26:07.618Z,93441.14
2018-07-11T03:28:35.906Z,93439.47
2018-07-11T03:31:03.938Z,93442.69
2018-07-11T03:33:32.013Z,93436.64
2018-07-11T03:36:00.173Z,93440.83
2018-07-11T03:38:28.268Z,93440.02
2018-07-11T03:40:56.474Z,93439.92
2018-07-11T03:43:24.884Z,93447.37
2018-07-11T03:45:53.316Z,93447.31
2018-07-11T03:48:21.453Z,93450.12
2018-07-11T03:50:49.639Z,93456.06
2018-07-11T03:53:17.862Z,93454.44
2018-07-11T03:55:45.960Z,93458.98
2018-07-11T03:58:14.179Z,93457.66
2018-07-11T04:00:42.543Z,93463.88
2018-07-11T04:03:10.666Z,93467.53
2018-07-11T04:05:38.782Z,93472.67
2018-07-11T04:08:07.044Z,93474.94
2018-07-11T04:10:35.200Z,93476.05
2018-07-11T04:13:03.440Z,93481.59
2018-07-11T04:15:31.790Z,93481.38
2018-07-11T04:17:59.898Z,93482.97
2018-07-11T04:20:28.055Z,93489.47
2018-07-11T04:22:56.301Z,93485.19
2018-07-11T04:25:24.508Z,93487.48
2018-07-11T04:27:52.733Z,93492.11
2018-07-11T04:30:20.959Z,93495.95
2018-07-11T04:32:49.489Z,93492.28
2018-07-11T04:35:17.604Z,93496.55
2018-07-11T04:37:46.217Z,93498.11
2018-07-11T04:40:14.586Z,93499.53
2018-07-11T04:42:42.779Z,93504.16
2018-07-11T04:45:11.007Z,93503.56
2018-07-11T04:47:39.220Z,93506.98
2018-07-11T04:50:07.724Z,93504.84
2018-07-11T04:52:36.026Z,93501.13
2018-07-11T04:55:04.201Z,93504.17
2018-07-11T04:57:32.370Z,93499.15
2018-07-11T05:00:00.585Z,93501.23
2018-07-11T05:02:28.980Z,93503.17
2018-07-11T05:04:57.176Z,93506.09
2018-07-11T05:07:25.364Z,93508.38
2018-07-11T05:09:53.637Z,93500.08
2018-07-11T05:12:21.674Z,93498.95
2018-07-11T05:14:49.781Z,93504.55
2018-07-11T05:17:17.897Z,93500.13
2018-07-11T05:19:45.924Z,93502.47
2018-07-11T05:22:14.068Z,93496.34
2018-07-11T05:24:42.200Z,93507.09
2018-07-11T05:27:10.581Z,93506.08
2018-07-11T05:29:38.669Z,93504.68
2018-07-11T05:32:07.133Z,93496.56
2018-07-11T05:34:35.508Z,93504.56
2018-07-11T05:37:03.629Z,93504.97
2018-07-11T05:39:32.072Z,93504.42
2018-07-11T05:42:00.227Z,93507.91
2018-07-11T05:44:28.533Z,93512.70
2018-07-11T05:47:01.964Z,93501.56
2018-07-11T05:49:30.425Z,93509.86
2018-07-11T05:51:58.907Z,93509.58
2018-07-11T05:54:27.597Z,93510.64
2018-07-11T05:56:55.821Z,93503.20
2018-07-11T05:59:24.168Z,93502.03
2018-07-11T06:01:52.501Z,93508.83
2018-07-11T06:04:21.151Z,93509.72
2018-07-11T06:06:50.266Z,93508.28
2018-07-11T06:09:18.599Z,93508.08
2018-07-11T06:11:46.769Z,93499.09
2018-07-11T06:14:14.938Z,93496.09
2018-07-11T06:16:43.198Z,93497.61
2018-07-11T06:19:11.395Z,93494.28
2018-07-11T06:21:39.778Z,93490.20
2018-07-11T06:24:08.024Z,93495.19
2018-07-11T06:26:36.570Z,93499.64
2018-07-11T06:29:04.791Z,93491.77
2018-07-11T06:31:33.168Z,93490.45
2018-07-11T06:34:01.772Z,93495.05
2018-07-11T06:36:30.105Z,93492.11
2018-07-11T06:38:58.677Z,93498.84
2018-07-11T06:41:26.918Z,93494.34
2018-07-11T06:43:55.134Z,93494.39
2018-07-11T06:46:23.469Z,93493.78
2018-07-11T06:48:51.711Z,93496.17
2018-07-11T06:51:19.881Z,93495.69
2018-07-11T06:53:48.227Z,93488.71
2018-07-11T06:56:16.765Z,93486.72
2018-07-11T06:58:45.073Z,93483.56
2018-07-11T07:01:13.385Z,93482.00
2018-07-11T07:03:41.547Z,93481.14
2018-07-11T07:06:09.783Z,93479.61
2018-07-11T07:08:37.993Z,93479.32
2018-07-11T07:11:06.328Z,93478.27
2018-07-11T07:13:34.432Z,93485.20
2018-07-11T07:16:02.643Z,93477.92
2018-07-11T07:18:30.721Z,93474.36
2018-07-11T07:20:58.804Z,93478.69
2018-07-11T07:23:27.068Z,93474.04
2018-07-11T07:25:55.192Z,93480.16
2018-07-11T07:28:23.398Z,93474.34
2018-07-11T07:30:51.704Z,93478.93
2018-07-11T07:33:19.867Z,93476.49
2018-07-11T07:35:48.278Z,93480.98
2018-07-11T07:38:16.546Z,93473.41
2018-07-11T07:40:44.609Z,93478.45
2018-07-11T07:43:12.788Z,93469.33
2018-07-11T07:45:42.214Z,93471.03
2018-07-11T07:48:10.410Z,93472.95
2018-07-11T07:50:38.529Z,93472.45
2018-07-11T07:53:06.829Z,93476.56
2018-07-11T07:55:35.126Z,93472.23
2018-07-11T07:58:03.412Z,93466.82
2018-07-11T08:00:31.872Z,93470.31
2018-07-11T08:03:00.556Z,93466.77
2018-07-11T08:05:28.866Z,93457.20
2018-07-11T08:07:57.076Z,93465.30
2018-07-11T08:10:25.572Z,93463.52
2018-07-11T08:12:53.964Z,93461.78
2018-07-11T08:15:22.360Z,93456.01
2018-07-11T08:17:50.829Z,93458.88
2018-07-11T08:20:19.484Z,93458.46
2018-07-11T08:23:37.023Z,93458.09
2018-07-11T08:28:17.680Z,93457.45
2018-07-11T08:31:58.088Z,93454.09
2018-07-11T08:34:40.946Z,93451.16
2018-07-11T08:37:25.107Z,93449.05
2018-07-11T08:40:05.735Z,93443.72
2018-07-11T08:43:31.688Z,93447.64
2018-07-11T08:48:15.231Z,93447.09
2018-07-11T08:53:13.069Z,93453.41
2018-07-11T09:00:02.179Z,93443.56
2018-07-11T09:03:15.118Z,93432.79
2018-07-11T09:10:00.451Z,93434.66
2018-07-11T09:12:39.720Z,93434.58
2018-07-11T09:17:23.939Z,93435.92
2018-07-11T09:20:38.785Z,93434.59
2018-07-11T09:23:33.909Z,93432.55
2018-07-11T09:26:02.244Z,93437.10
2018-07-11T09:28:30.530Z,93428.38
2018-07-11T09:30:58.755Z,93429.11
2018-07-11T09:33:26.953Z,93429.77
2018-07-11T09:35:55.111Z,93428.34
2018-07-11T09:38:23.270Z,93431.92
2018-07-11T09:40:51.460Z,93430.49
2018-07-11T09:43:19.724Z,93427.47
2018-07-11T09:45:48.013Z,93425.91
2018-07-11T09:48:16.518Z,93433.13
2018-07-11T09:50:44.633Z,93438.26
2018-07-11T09:53:12.906Z,93424.73
2018-07-11T09:55:41.101Z,93430.52
2018-07-11T09:58:09.292Z,93428.39
2018-07-11T10:01:46.933Z,93427.59
2018-07-11T10:04:16.062Z,93427.72
2018-07-11T10:06:44.460Z,93434.16
2018-07-11T10:09:12.792Z,93434.14
2018-07-11T10:11:41.235Z,93432.99
2018-07-11T10:14:09.511Z,93429.20
2018-07-11T10:16:37.858Z,93425.86
2018-07-11T10:19:06.169Z,93431.73
2018-07-11T10:21:35.060Z,93426.75
2018-07-11T10:24:03.269Z,93426.48
2018-07-11T10:26:31.392Z,93432.16
2018-07-11T10:28:59.530Z,93422.02
2018-07-11T10:31:28.406Z,93418.02
2018-07-11T10:33:56.834Z,93425.73
2018-07-11T10:36:25.065Z,93419.33
2018-07-11T10:38:53.432Z,93414.00
2018-07-11T10:41:21.893Z,93427.86
2018-07-11T10:43:50.232Z,93417.44
2018-07-11T10:46:18.411Z,93406.66
2018-07-11T10:48:46.815Z,93408.96
2018-07-11T10:51:17.085Z,93402.31
2018-07-11T10:53:45.612Z,93402.52
2018-07-11T10:56:13.970Z,93396.33
2018-07-11T10:58:42.269Z,93402.92
2018-07-11T11:01:10.651Z,93399.40
2018-07-11T11:03:39.129Z,93395.50
2018-07-11T11:06:07.439Z,93393.53
2018-07-11T11:08:35.553Z,93384.47
2018-07-11T11:11:03.690Z,93387.61
2018-07-11T11:13:31.949Z,93381.95
2018-07-11T11:16:00.398Z,93387.47
2018-07-11T11:18:28.493Z,93385.33
2018-07-11T11:20:57.097Z,93377.33
2018-07-11T11:23:25.365Z,93375.33
2018-07-11T11:25:53.669Z,93376.50
2018-07-11T11:28:21.894Z,93374.84
2018-07-11T11:30:50.130Z,93368.06
2018-07-11T11:33:18.470Z,93365.52
2018-07-11T11:35:46.913Z,93378.76
2018-07-11T11:38:15.092Z,93368.41
2018-07-11T11:40:43.501Z,93359.66
2018-07-11T11:43:11.816Z,93360.73
2018-07-11T11:45:40.250Z,93357.09
2018-07-11T11:48:08.679Z,93359.14
2018-07-11T11:50:36.897Z,93361.20
2018-07-11T11:53:05.377Z,93356.78
2018-07-11T11:55:33.689Z,93355.23
2018-07-11T11:58:01.909Z,93354.61
2018-07-11T12:00:30.152Z,93347.32
2018-07-11T12:02:58.564Z,93338.66
2018-07-11T12:05:26.828Z,93339.23
2018-07-11T12:07:55.368Z,93335.49
2018-07-11T12:10:23.803Z,93331.77
2018-07-11T12:12:51.912Z,93336.27
2018-07-11T12:15:20.220Z,93334.89
2018-07-11T12:17:48.413Z,93330.94
2018-07-11T12:20:16.695Z,93332.80
2018-07-11T12:22:45.202Z,93323.84
2018-07-11T12:25:13.446Z,93321.48
2018-07-11T12:27:41.685Z,93321.77
2018-07-11T12:30:09.914Z,93323.39
2018-07-11T12:32:38.077Z,93320.87
2018-07-11T12:35:06.360Z,93313.95
2018-07-11T12:37:34.645Z,93313.44
2018-07-11T12:40:03.236Z,93309.70
2018-07-11T12:42:31.557Z,93312.83
2018-07-11T12:44:59.928Z,93308.48
2018-07-11T12:47:33.721Z,93302.76
2018-07-11T12:50:02.297Z,93298.77
2018-07-11T12:52:30.631Z,93307.32
2018-07-11T12:54:58.826Z,93305.00
2018-07-11T12:57:27.097Z,93306.68
2018-07-11T12:59:55.327Z,93305.15
2018-07-11T13:02:23.409Z,93301.23
2018-07-11T13:04:51.981Z,93306.20
2018-07-11T13:07:20.441Z,93306.28
2018-07-11T13:09:48.672Z,93308.36
2018-07-11T13:12:16.848Z,93302.84
2018-07-11T13:14:45.063Z,93308.23
2018-07-11T13:17:13.184Z,93308.95
2018-07-11T13:19:41.262Z,93307.75
2018-07-11T13:22:09.371Z,93306.04
2018-07-11T13:24:37.507Z,93310.38
2018-07-11T13:27:06.159Z,93308.60
2018-07-11T13:29:34.285Z,93309.20
2018-07-11T13:32:02.378Z,93304.73
2018-07-11T13:34:30.617Z,93301.89
2018-07-11T13:36:58.894Z,93312.76
2018-07-11T13:39:27.385Z,93313.03
2018-07-11T13:41:55.755Z,93318.16
2018-07-11T13:44:24.005Z,93319.06
2018-07-11T13:46:52.204Z,93319.16
2018-07-11T13:49:21.223Z,93316.39
2018-07-11T13:51:49.636Z,93310.88
2018-07-11T13:54:18.057Z,93316.16
2018-07-11T13:56:46.612Z,93311.86
2018-07-11T13:59:14.847Z,93304.28
2018-07-11T14:01:43.064Z,93315.05
2018-07-11T14:04:11.381Z,93313.07
2018-07-11T14:06:39.953Z,93307.80
2018-07-11T14:09:08.055Z,93306.24
2018-07-11T14:11:36.314Z,93313.38
2018-07-11T14:14:04.504Z,93319.38
2018-07-11T14:16:32.892Z,93318.19
2018-07-11T14:19:01.096Z,93315.52
2018-07-11T14:21:29.310Z,93315.27
2018-07-11T14:23:57.720Z,93318.70
2018-07-11T14:26:26.737Z,93308.80
2018-07-11T14:28:55.227Z,93313.12
2018-07-11T14:31:33.681Z,93313.34
2018-07-11T14:34:04.478Z,93312.02
2018-07-11T14:36:33.156Z,93310.27
2018-07-11T14:39:01.667Z,93308.31
2018-07-11T14:41:29.951Z,93308.94
2018-07-11T14:43:58.499Z,93308.94
2018-07-11T14:46:28.415Z,93307.63
2018-07-11T14:48:56.850Z,93308.31
2018-07-11T14:51:25.525Z,93306.69
2018-07-11T14:53:55.774Z,93311.36
2018-07-11T14:56:24.064Z,93314.55
2018-07-11T14:58:54.263Z,93307.30
2018-07-11T15:01:23.308Z,93306.25
2018-07-11T15:03:51.591Z,93306.39
2018-07-11T15:06:20.437Z,93299.48
2018-07-11T15:08:48.709Z,93298.09
2018-07-11T15:11:16.944Z,93301.77
2018-07-11T15:13:45.128Z,93300.35
2018-07-11T15:16:13.412Z,93299.56
2018-07-11T15:18:41.677Z,93303.80
2018-07-11T15:21:09.941Z,93303.83
2018-07-11T15:23:38.357Z,93300.27
2018-07-11T15:26:06.675Z,93304.64
2018-07-11T15:28:34.905Z,93306.66
2018-07-11T15:31:03.109Z,93304.81
2018-07-11T15:33:31.459Z,93311.91
2018-07-11T15:35:59.899Z,93307.93
2018-07-11T15:38:28.401Z,93307.93
2018-07-11T15:40:59.361Z,93315.02
2018-07-11T15:43:28.341Z,93307.70
2018-07-11T15:45:57.105Z,93310.59
2018-07-11T15:48:25.436Z,93309.34
2018-07-11T15:50:54.433Z,93307.38
2018-07-11T15:53:23.422Z,93306.67
2018-07-11T15:55:52.482Z,93306.81
2018-07-11T15:58:21.594Z,93301.70
2018-07-11T16:00:49.653Z,93302.94
2018-07-11T16:03:19.122Z,93307.55
2018-07-11T16:05:48.057Z,93310.84
2018-07-11T16:08:20.569Z,93311.45
2018-07-11T16:10:50.275Z,93312.05
2018-07-11T16:13:18.461Z,93308.47
2018-07-11T16:15:46.744Z,93310.27
2018-07-11T16:18:14.920Z,93313.75
2018-07-11T16:20:43.099Z,93315.59
2018-07-11T16:23:11.470Z,93318.88
2018-07-11T16:25:41.105Z,93322.23
2018-07-11T16:28:09.428Z,93318.06
2018-07-11T16:30:37.687Z,93317.28
2018-07-11T16:33:06.078Z,93318.78
2018-07-11T16:35:34.205Z,93322.65
2018-07-11T16:38:02.705Z,93323.52
2018-07-11T16:40:32.014Z,93320.65
2018-07-11T16:43:00.792Z,93319.38
2018-07-11T16:45:29.506Z,93324.69
2018-07-11T16:47:58.432Z,93323.53
2018-07-11T16:50:26.724Z,93324.47
2018-07-11T16:52:55.691Z,93325.30
2018-07-11T16:55:24.291Z,93323.52
2018-07-11T16:57:53.239Z,93323.11
2018-07-11T17:00:26.329Z,93326.45
2018-07-11T17:03:07.646Z,93324.31
2018-07-11T17:06:09.808Z,93327.87
2018-07-11T17:08:43.366Z,93328.36
2018-07-11T17:11:16.981Z,93331.47
2018-07-11T17:13:54.376Z,93336.38
2018-07-11T17:16:30.278Z,93334.51
2018-07-11T17:19:08.791Z,93337.76
2018-07-11T17:21:47.053Z,93333.45
2018-07-11T17:24:16.974Z,93342.59
2018-07-11T17:26:46.858Z,93340.79
2018-07-11T17:29:20.104Z,93349.72
2018-07-11T17:31:50.813Z,93350.36
2018-07-11T17:34:19.058Z,93351.19
2018-07-11T17:36:49.197Z,93359.14
2018-07-11T17:39:17.549Z,93359.47
2018-07-11T17:41:46.785Z,93355.99
2018-07-11T17:44:16.630Z,93362.77
2018-07-11T17:46:45.958Z,93361.09
2018-07-11T17:49:20.042Z,93366.38
2018-07-11T17:52:06.515Z,93366.66
2018-07-11T17:54:48.152Z,93368.93
2018-07-11T17:57:25.697Z,93365.11
2018-07-11T18:00:06.569Z,93372.98
2018-07-11T18:02:47.497Z,93374.93
2018-07-11T18:05:26.636Z,93370.91
2018-07-11T18:07:55.925Z,93374.52
2018-07-11T18:10:33.185Z,93374.16
2018-07-11T18:13:15.787Z,93382.59
2018-07-11T18:15:53.878Z,93377.19
2018-07-11T18:18:39.111Z,93376.34
2018-07-11T18:21:24.264Z,93380.20
2018-07-11T18:25:01.350Z,93377.13
2018-07-11T18:28:40.759Z,93391.34
2018-07-11T18:33:29.340Z,93390.60
2018-07-11T18:36:12.976Z,93403.18
2018-07-11T18:38:54.410Z,93398.52
2018-07-11T18:41:33.102Z,93400.09
2018-07-11T18:44:14.388Z,93401.87
2018-07-11T18:46:56.622Z,93405.11
2018-07-11T18:49:33.197Z,93405.03
2018-07-11T18:52:12.744Z,93407.91
2018-07-11T18:54:52.901Z,93414.81
2018-07-11T18:57:34.245Z,93410.92
2018-07-11T19:02:18.627Z,93415.16
2018-07-11T19:05:01.348Z,93422.42
2018-07-11T19:07:41.336Z,93419.67
2018-07-11T19:10:10.690Z,93422.94
2018-07-11T19:12:54.810Z,93429.14
2018-07-11T19:15:32.357Z,93429.56
2018-07-11T19:18:07.096Z,93433.91
2018-07-11T19:21:12.099Z,93438.59
2018-07-11T19:23:53.215Z,93444.26
2018-07-11T19:26:29.744Z,93448.24
2018-07-11T19:29:22.272Z,93450.84
2018-07-11T19:32:08.988Z,93456.34
2018-07-11T19:34:56.347Z,93453.63
2018-07-11T19:38:34.271Z,93459.45
2018-07-11T19:41:12.154Z,93463.66
2018-07-11T19:45:56.749Z,93456.67
2018-07-11T19:50:39.824Z,93450.12
2018-07-11T19:54:21.613Z,93452.63
2018-07-11T19:56:49.931Z,93451.52
2018-07-11T19:59:18.372Z,93449.88
2018-07-11T20:01:47.035Z,93447.02
2018-07-11T20:04:15.713Z,93445.51
2018-07-11T20:06:44.286Z,93447.84
2018-07-11T20:09:13.751Z,93446.83
2018-07-11T20:11:42.383Z,93451.62
2018-07-11T20:14:10.945Z,93448.56
2018-07-11T20:16:39.783Z,93440.36
2018-07-11T20:19:07.854Z,93444.92
2018-07-11T20:21:36.046Z,93448.92
2018-07-11T20:24:04.383Z,93454.07
2018-07-11T20:26:32.731Z,93459.81
2018-07-11T20:29:01.114Z,93462.23
2018-07-11T20:31:29.606Z,93455.99
2018-07-11T20:33:58.152Z,93454.81
2018-07-11T20:36:26.578Z,93459.73
2018-07-11T20:38:54.945Z,93465.59
2018-07-11T20:41:23.743Z,93471.34
2018-07-11T20:43:52.633Z,93471.23
2018-07-11T20:46:21.113Z,93473.16
2018-07-11T20:48:49.444Z,93478.47
2018-07-11T20:51:17.598Z,93485.88
2018-07-11T20:53:45.826Z,93483.14
2018-07-11T20:56:13.896Z,93485.08
2018-07-11T20:58:52.908Z,93485.69
2018-07-11T21:01:32.043Z,93486.44
2018-07-11T21:06:19.844Z,93486.92
2018-07-11T21:10:00.748Z,93495.29
2018-07-11T21:12:46.598Z,93492.30
2018-07-11T21:17:33.691Z,93496.23
2018-07-11T21:20:01.862Z,93496.16
2018-07-11T21:22:30.197Z,93499.27
2018-07-11T21:24:58.296Z,93494.36
2018-07-11T21:27:26.535Z,93498.91
2018-07-11T21:29:54.623Z,93495.71
2018-07-11T21:32:22.801Z,93500.14
2018-07-11T21:34:51.065Z,93498.38
2018-07-11T21:37:19.287Z,93495.67
2018-07-11T21:39:47.426Z,93500.31
2018-07-11T21:42:15.569Z,93510.34
2018-07-11T21:44:43.878Z,93504.77
2018-07-11T21:47:12.017Z,93502.52
2018-07-11T21:49:40.168Z,93505.52
2018-07-11T21:52:08.216Z,93508.45
2018-07-11T21:54:36.397Z,93517.23
2018-07-11T21:57:04.560Z,93518.62
2018-07-11T21:59:32.830Z,93516.37
2018-07-11T22:02:01.012Z,93521.65
2018-07-11T22:04:29.245Z,93521.52
2018-07-11T22:06:57.335Z,93517.27
2018-07-11T22:09:25.321Z,93518.86
2018-07-11T22:11:53.442Z,93513.13
2018-07-11T22:14:21.447Z,93507.39
2018-07-11T22:16:49.528Z,93515.39
2018-07-11T22:19:17.617Z,93514.84
2018-07-11T22:21:44.349Z,93513.91
2018-07-11T22:24:11.120Z,93506.78
2018-07-11T22:26:37.959Z,93507.67
2018-07-11T22:29:04.654Z,93504.94
2018-07-11T22:31:31.385Z,93511.28
2018-07-11T22:33:58.194Z,93508.49
2018-07-11T22:36:24.944Z,93514.11
2018-07-11T22:38:51.676Z,93511.27
2018-07-11T22:41:18.392Z,93515.20
2018-07-11T22:43:45.172Z,93515.20
2018-07-11T22:46:12.026Z,93515.42
2018-07-11T22:48:38.958Z,93517.59
2018-07-11T22:51:05.719Z,93513.08
2018-07-11T22:53:32.636Z,93512.75
2018-07-11T22:55:59.975Z,93514.30
2018-07-11T22:58:26.757Z,93518.02
2018-07-11T23:00:53.682Z,93520.97
2018-07-11T23:03:20.637Z,93519.03
2018-07-11T23:05:47.365Z,93518.08
2018-07-11T23:08:14.079Z,93523.14
2018-07-11T23:10:40.868Z,93525.39
2018-07-11T23:13:07.664Z,93528.03
2018-07-11T23:15:34.700Z,93523.67
2018-07-11T23:18:01.407Z,93524.85
2018-07-11T23:20:28.161Z,93526.92
2018-07-11T23:22:54.839Z,93524.30
2018-07-11T23:25:21.503Z,93525.03
2018-07-11T23:27:48.222Z,93527.55
2018-07-11T23:30:14.914Z,93536.72
2018-07-11T23:32:41.573Z,93536.34
2018-07-11T23:35:08.284Z,93537.89
2018-07-11T23:37:34.946Z,93536.36
2018-07-11T23:40:01.666Z,93541.60
2018-07-11T23:42:28.443Z,93538.86
2018-07-11T23:44:55.180Z,93541.23
2018-07-11T23:47:21.843Z,93540.80
2018-07-11T23:49:48.515Z,93541.52
2018-07-11T23:52:15.237Z,93543.77
2018-07-11T23:54:47.404Z,93548.41
2018-07-11T23:57:14.126Z,93546.28
2018-07-11T23:59:40.887Z,93542.02
